sensor_id;sensor_type;location;lat;lon;timestamp;temperature;humidity
27890;DHT22;15238;49.082;9.102;2024-03-08T00:01:16;3.40;99.90
27890;DHT22;15238;49.082;9.102;2024-03-08T00:03:19;3.40;99.90
27890;DHT22;15238;49.082;9.102;2024-03-08T00:05:20;3.30;99.90
27890;DHT22;15238;49.082;9.102;2024-03-08T00:07:20;3.30;99.90
27890;DHT22;15238;49.082;9.102;2024-03-08T00:09:21;3.20;99.90
27890;DHT22;15238;49.082;9.102;2024-03-08T00:11:22;3.20;99.90
27890;DHT22;15238;49.082;9.102;2024-03-08T00:13:22;3.20;99.90
27890;DHT22;15238;49.082;9.102;2024-03-08T00:15:23;3.20;99.90
27890;DHT22;15238;49.082;9.102;2024-03-08T00:17:23;3.10;99.90
27890;DHT22;15238;49.082;9.102;2024-03-08T00:19:24;3.10;99.90
27890;DHT22;15238;49.082;9.102;2024-03-08T00:21:24;3.10;99.90
27890;DHT22;15238;49.082;9.102;2024-03-08T00:23:27;3.10;99.90
27890;DHT22;15238;49.082;9.102;2024-03-08T00:25:28;3.10;99.90
27890;DHT22;15238;49.082;9.102;2024-03-08T00:27:29;3.10;99.90
27890;DHT22;15238;49.082;9.102;2024-03-08T00:29:32;3.10;99.90
27890;DHT22;15238;49.082;9.102;2024-03-08T00:31:32;3.20;99.90
27890;DHT22;15238;49.082;9.102;2024-03-08T00:33:33;3.20;99.90
27890;DHT22;15238;49.082;9.102;2024-03-08T00:35:33;3.10;99.90
27890;DHT22;15238;49.082;9.102;2024-03-08T00:37:34;3.10;99.90
27890;DHT22;15238;49.082;9.102;2024-03-08T00:39:37;3.00;99.90
27890;DHT22;15238;49.082;9.102;2024-03-08T00:41:38;3.00;99.90
27890;DHT22;15238;49.082;9.102;2024-03-08T00:43:38;2.90;99.90
27890;DHT22;15238;49.082;9.102;2024-03-08T00:45:39;2.80;99.90
27890;DHT22;15238;49.082;9.102;2024-03-08T00:47:42;2.80;99.90
27890;DHT22;15238;49.082;9.102;2024-03-08T00:49:44;2.70;99.90
27890;DHT22;15238;49.082;9.102;2024-03-08T00:51:44;2.70;99.90
27890;DHT22;15238;49.082;9.102;2024-03-08T00:53:45;2.60;99.90
27890;DHT22;15238;49.082;9.102;2024-03-08T00:55:47;2.60;99.90
27890;DHT22;15238;49.082;9.102;2024-03-08T00:57:47;2.60;99.90
27890;DHT22;15238;49.082;9.102;2024-03-08T00:59:48;2.50;99.90
27890;DHT22;15238;49.082;9.102;2024-03-08T01:01:48;2.50;99.90
27890;DHT22;15238;49.082;9.102;2024-03-08T01:03:49;2.40;99.90
27890;DHT22;15238;49.082;9.102;2024-03-08T01:05:49;2.40;99.90
27890;DHT22;15238;49.082;9.102;2024-03-08T01:07:50;2.40;99.90
27890;DHT22;15238;49.082;9.102;2024-03-08T01:09:52;2.40;99.90
27890;DHT22;15238;49.082;9.102;2024-03-08T01:11:54;2.30;99.90
27890;DHT22;15238;49.082;9.102;2024-03-08T01:13:55;2.20;99.90
27890;DHT22;15238;49.082;9.102;2024-03-08T01:15:55;2.20;99.90
27890;DHT22;15238;49.082;9.102;2024-03-08T01:17:56;2.00;99.90
27890;DHT22;15238;49.082;9.102;2024-03-08T01:19:56;2.00;99.90
27890;DHT22;15238;49.082;9.102;2024-03-08T01:21:57;2.00;99.90
27890;DHT22;15238;49.082;9.102;2024-03-08T01:23:57;2.00;99.90
27890;DHT22;15238;49.082;9.102;2024-03-08T01:25:58;2.00;99.90
27890;DHT22;15238;49.082;9.102;2024-03-08T01:27:58;1.90;99.90
27890;DHT22;15238;49.082;9.102;2024-03-08T01:29:58;1.80;99.90
27890;DHT22;15238;49.082;9.102;2024-03-08T01:31:59;1.80;99.90
27890;DHT22;15238;49.082;9.102;2024-03-08T01:34:02;1.70;99.90
27890;DHT22;15238;49.082;9.102;2024-03-08T01:36:02;1.70;99.90
27890;DHT22;15238;49.082;9.102;2024-03-08T01:38:03;1.70;99.90
27890;DHT22;15238;49.082;9.102;2024-03-08T01:40:06;1.70;99.90
27890;DHT22;15238;49.082;9.102;2024-03-08T01:42:08;1.70;99.90
27890;DHT22;15238;49.082;9.102;2024-03-08T01:44:09;1.90;99.90
27890;DHT22;15238;49.082;9.102;2024-03-08T01:46:11;2.00;99.90
27890;DHT22;15238;49.082;9.102;2024-03-08T01:48:14;1.90;99.90
27890;DHT22;15238;49.082;9.102;2024-03-08T01:50:15;1.90;99.90
27890;DHT22;15238;49.082;9.102;2024-03-08T01:52:17;1.80;99.90
27890;DHT22;15238;49.082;9.102;2024-03-08T01:54:19;1.80;99.90
27890;DHT22;15238;49.082;9.102;2024-03-08T01:56:20;1.80;99.90
27890;DHT22;15238;49.082;9.102;2024-03-08T01:58:21;1.90;99.90
27890;DHT22;15238;49.082;9.102;2024-03-08T02:00:23;1.90;99.90
27890;DHT22;15238;49.082;9.102;2024-03-08T02:02:24;1.90;99.90
27890;DHT22;15238;49.082;9.102;2024-03-08T02:04:25;1.90;99.90
27890;DHT22;15238;49.082;9.102;2024-03-08T02:06:26;1.90;99.90
27890;DHT22;15238;49.082;9.102;2024-03-08T02:08:26;1.90;99.90
27890;DHT22;15238;49.082;9.102;2024-03-08T02:10:27;1.90;99.90
27890;DHT22;15238;49.082;9.102;2024-03-08T02:12:27;1.90;99.90
27890;DHT22;15238;49.082;9.102;2024-03-08T02:14:28;1.90;99.90
27890;DHT22;15238;49.082;9.102;2024-03-08T02:16:31;1.80;99.90
27890;DHT22;15238;49.082;9.102;2024-03-08T02:18:31;1.80;99.90
27890;DHT22;15238;49.082;9.102;2024-03-08T02:20:34;1.80;99.90
27890;DHT22;15238;49.082;9.102;2024-03-08T02:22:35;1.80;99.90
27890;DHT22;15238;49.082;9.102;2024-03-08T02:24:36;1.80;99.90
27890;DHT22;15238;49.082;9.102;2024-03-08T02:26:37;1.80;99.90
27890;DHT22;15238;49.082;9.102;2024-03-08T02:28:37;1.90;99.90
27890;DHT22;15238;49.082;9.102;2024-03-08T02:30:39;1.90;99.90
27890;DHT22;15238;49.082;9.102;2024-03-08T02:32:39;1.90;99.90
27890;DHT22;15238;49.082;9.102;2024-03-08T02:34:40;1.90;99.90
27890;DHT22;15238;49.082;9.102;2024-03-08T02:36:40;1.90;99.90
27890;DHT22;15238;49.082;9.102;2024-03-08T02:38:42;1.90;99.90
27890;DHT22;15238;49.082;9.102;2024-03-08T02:40:47;1.90;99.90
27890;DHT22;15238;49.082;9.102;2024-03-08T02:42:48;1.90;99.90
27890;DHT22;15238;49.082;9.102;2024-03-08T02:44:48;1.90;99.90
27890;DHT22;15238;49.082;9.102;2024-03-08T02:46:49;1.90;99.90
27890;DHT22;15238;49.082;9.102;2024-03-08T02:48:50;1.90;99.90
27890;DHT22;15238;49.082;9.102;2024-03-08T02:50:51;1.90;99.90
27890;DHT22;15238;49.082;9.102;2024-03-08T02:52:51;2.00;99.90
27890;DHT22;15238;49.082;9.102;2024-03-08T02:54:52;2.00;99.90
27890;DHT22;15238;49.082;9.102;2024-03-08T02:56:52;2.00;99.90
27890;DHT22;15238;49.082;9.102;2024-03-08T02:58:53;2.00;99.90
27890;DHT22;15238;49.082;9.102;2024-03-08T03:00:54;2.00;99.90
27890;DHT22;15238;49.082;9.102;2024-03-08T03:02:55;2.00;99.90
27890;DHT22;15238;49.082;9.102;2024-03-08T03:04:56;2.00;99.90
27890;DHT22;15238;49.082;9.102;2024-03-08T03:06:57;2.00;99.90
27890;DHT22;15238;49.082;9.102;2024-03-08T03:08:58;1.90;99.90
27890;DHT22;15238;49.082;9.102;2024-03-08T03:10:58;1.90;99.90
27890;DHT22;15238;49.082;9.102;2024-03-08T03:12:59;1.80;99.90
27890;DHT22;15238;49.082;9.102;2024-03-08T03:14:59;1.80;99.90
27890;DHT22;15238;49.082;9.102;2024-03-08T03:17:00;1.80;99.90
27890;DHT22;15238;49.082;9.102;2024-03-08T03:19:00;1.80;99.90
27890;DHT22;15238;49.082;9.102;2024-03-08T03:21:03;1.80;99.90
27890;DHT22;15238;49.082;9.102;2024-03-08T03:23:08;1.80;99.90
27890;DHT22;15238;49.082;9.102;2024-03-08T03:25:09;1.80;99.90
27890;DHT22;15238;49.082;9.102;2024-03-08T03:27:10;1.90;99.90
27890;DHT22;15238;49.082;9.102;2024-03-08T03:29:13;1.90;99.90
27890;DHT22;15238;49.082;9.102;2024-03-08T03:31:14;1.90;99.90
27890;DHT22;15238;49.082;9.102;2024-03-08T03:33:15;1.90;99.90
27890;DHT22;15238;49.082;9.102;2024-03-08T03:35:20;1.90;99.90
27890;DHT22;15238;49.082;9.102;2024-03-08T03:37:21;1.90;99.90
27890;DHT22;15238;49.082;9.102;2024-03-08T03:39:22;1.90;99.90
27890;DHT22;15238;49.082;9.102;2024-03-08T03:41:23;2.00;99.90
27890;DHT22;15238;49.082;9.102;2024-03-08T03:43:23;1.90;99.90
27890;DHT22;15238;49.082;9.102;2024-03-08T03:45:25;2.00;99.90
27890;DHT22;15238;49.082;9.102;2024-03-08T03:47:25;2.00;99.90
27890;DHT22;15238;49.082;9.102;2024-03-08T03:49:27;1.90;99.90
27890;DHT22;15238;49.082;9.102;2024-03-08T03:51:29;1.90;99.90
27890;DHT22;15238;49.082;9.102;2024-03-08T03:53:30;1.90;99.90
27890;DHT22;15238;49.082;9.102;2024-03-08T03:55:30;1.80;99.90
27890;DHT22;15238;49.082;9.102;2024-03-08T03:57:31;1.80;99.90
27890;DHT22;15238;49.082;9.102;2024-03-08T03:59:31;1.80;99.90
27890;DHT22;15238;49.082;9.102;2024-03-08T04:01:33;1.80;99.90
27890;DHT22;15238;49.082;9.102;2024-03-08T04:03:34;1.80;99.90
27890;DHT22;15238;49.082;9.102;2024-03-08T04:05:34;1.70;99.90
27890;DHT22;15238;49.082;9.102;2024-03-08T04:07:36;1.70;99.90
27890;DHT22;15238;49.082;9.102;2024-03-08T04:09:36;1.70;99.90
27890;DHT22;15238;49.082;9.102;2024-03-08T04:11:37;1.80;99.90
27890;DHT22;15238;49.082;9.102;2024-03-08T04:13:37;1.90;99.90
27890;DHT22;15238;49.082;9.102;2024-03-08T04:15:38;2.00;99.90
27890;DHT22;15238;49.082;9.102;2024-03-08T04:17:38;2.10;99.90
27890;DHT22;15238;49.082;9.102;2024-03-08T04:19:39;2.20;99.90
27890;DHT22;15238;49.082;9.102;2024-03-08T04:21:40;2.20;99.90
27890;DHT22;15238;49.082;9.102;2024-03-08T04:23:40;2.20;99.90
27890;DHT22;15238;49.082;9.102;2024-03-08T04:25:41;2.30;99.90
27890;DHT22;15238;49.082;9.102;2024-03-08T04:27:42;2.20;99.90
27890;DHT22;15238;49.082;9.102;2024-03-08T04:29:43;2.30;99.90
27890;DHT22;15238;49.082;9.102;2024-03-08T04:31:43;2.20;99.90
27890;DHT22;15238;49.082;9.102;2024-03-08T04:33:44;2.30;99.90
27890;DHT22;15238;49.082;9.102;2024-03-08T04:35:45;2.30;99.90
27890;DHT22;15238;49.082;9.102;2024-03-08T04:37:46;2.30;99.90
27890;DHT22;15238;49.082;9.102;2024-03-08T04:39:47;2.30;99.90
27890;DHT22;15238;49.082;9.102;2024-03-08T04:41:47;2.30;99.90
27890;DHT22;15238;49.082;9.102;2024-03-08T04:43:48;2.30;99.90
27890;DHT22;15238;49.082;9.102;2024-03-08T04:45:48;2.30;99.90
27890;DHT22;15238;49.082;9.102;2024-03-08T04:47:49;2.20;99.90
27890;DHT22;15238;49.082;9.102;2024-03-08T04:49:49;2.10;99.90
27890;DHT22;15238;49.082;9.102;2024-03-08T04:51:50;2.10;99.90
27890;DHT22;15238;49.082;9.102;2024-03-08T04:53:51;2.00;99.90
27890;DHT22;15238;49.082;9.102;2024-03-08T04:55:51;2.00;99.90
27890;DHT22;15238;49.082;9.102;2024-03-08T04:57:52;2.00;99.90
27890;DHT22;15238;49.082;9.102;2024-03-08T04:59:53;1.90;99.90
27890;DHT22;15238;49.082;9.102;2024-03-08T05:01:53;1.80;99.90
27890;DHT22;15238;49.082;9.102;2024-03-08T05:03:54;1.70;99.90
27890;DHT22;15238;49.082;9.102;2024-03-08T05:05:55;1.70;99.90
27890;DHT22;15238;49.082;9.102;2024-03-08T05:07:56;1.60;99.90
27890;DHT22;15238;49.082;9.102;2024-03-08T05:09:57;1.50;99.90
27890;DHT22;15238;49.082;9.102;2024-03-08T05:11:57;1.50;99.90
27890;DHT22;15238;49.082;9.102;2024-03-08T05:13:59;1.40;99.90
27890;DHT22;15238;49.082;9.102;2024-03-08T05:16:00;1.30;99.90
27890;DHT22;15238;49.082;9.102;2024-03-08T05:18:01;1.30;99.90
27890;DHT22;15238;49.082;9.102;2024-03-08T05:20:02;1.20;99.90
27890;DHT22;15238;49.082;9.102;2024-03-08T05:22:02;1.20;99.90
27890;DHT22;15238;49.082;9.102;2024-03-08T05:24:03;1.30;99.90
27890;DHT22;15238;49.082;9.102;2024-03-08T05:26:05;1.20;99.90
27890;DHT22;15238;49.082;9.102;2024-03-08T05:28:06;1.20;99.90
27890;DHT22;15238;49.082;9.102;2024-03-08T05:30:06;1.20;99.90
27890;DHT22;15238;49.082;9.102;2024-03-08T05:32:07;1.10;99.90
27890;DHT22;15238;49.082;9.102;2024-03-08T05:34:08;1.10;99.90
27890;DHT22;15238;49.082;9.102;2024-03-08T05:36:10;1.10;99.90
27890;DHT22;15238;49.082;9.102;2024-03-08T05:38:12;1.10;99.90
27890;DHT22;15238;49.082;9.102;2024-03-08T05:40:13;1.00;99.90
27890;DHT22;15238;49.082;9.102;2024-03-08T05:42:13;1.00;99.90
27890;DHT22;15238;49.082;9.102;2024-03-08T05:44:14;1.00;99.90
27890;DHT22;15238;49.082;9.102;2024-03-08T05:46:15;0.90;99.90
27890;DHT22;15238;49.082;9.102;2024-03-08T05:48:16;1.00;99.90
27890;DHT22;15238;49.082;9.102;2024-03-08T05:50:18;0.90;99.90
27890;DHT22;15238;49.082;9.102;2024-03-08T05:52:19;0.90;99.90
27890;DHT22;15238;49.082;9.102;2024-03-08T05:54:20;0.90;99.90
27890;DHT22;15238;49.082;9.102;2024-03-08T05:56:27;0.90;99.90
27890;DHT22;15238;49.082;9.102;2024-03-08T05:58:29;0.90;99.90
27890;DHT22;15238;49.082;9.102;2024-03-08T06:00:30;0.90;99.90
27890;DHT22;15238;49.082;9.102;2024-03-08T06:02:31;1.00;99.90
27890;DHT22;15238;49.082;9.102;2024-03-08T06:04:32;0.90;99.90
27890;DHT22;15238;49.082;9.102;2024-03-08T06:06:32;0.90;99.90
27890;DHT22;15238;49.082;9.102;2024-03-08T06:08:33;0.90;99.90
27890;DHT22;15238;49.082;9.102;2024-03-08T06:10:33;0.80;99.90
27890;DHT22;15238;49.082;9.102;2024-03-08T06:12:34;0.70;99.90
27890;DHT22;15238;49.082;9.102;2024-03-08T06:14:40;0.70;99.90
27890;DHT22;15238;49.082;9.102;2024-03-08T06:16:40;0.80;99.90
27890;DHT22;15238;49.082;9.102;2024-03-08T06:18:41;0.80;99.90
27890;DHT22;15238;49.082;9.102;2024-03-08T06:20:41;0.80;99.90
27890;DHT22;15238;49.082;9.102;2024-03-08T06:22:44;0.70;99.90
27890;DHT22;15238;49.082;9.102;2024-03-08T06:24:45;0.70;99.90
27890;DHT22;15238;49.082;9.102;2024-03-08T06:26:45;0.80;99.90
27890;DHT22;15238;49.082;9.102;2024-03-08T06:28:46;0.80;99.90
27890;DHT22;15238;49.082;9.102;2024-03-08T06:30:46;0.80;99.90
27890;DHT22;15238;49.082;9.102;2024-03-08T06:32:47;0.70;99.90
27890;DHT22;15238;49.082;9.102;2024-03-08T06:34:47;0.70;99.90
27890;DHT22;15238;49.082;9.102;2024-03-08T06:36:48;0.80;99.90
27890;DHT22;15238;49.082;9.102;2024-03-08T06:38:51;0.80;99.90
27890;DHT22;15238;49.082;9.102;2024-03-08T06:40:52;0.90;99.90
27890;DHT22;15238;49.082;9.102;2024-03-08T06:42:53;1.00;99.90
27890;DHT22;15238;49.082;9.102;2024-03-08T06:44:53;1.00;99.90
27890;DHT22;15238;49.082;9.102;2024-03-08T06:46:56;1.00;99.90
27890;DHT22;15238;49.082;9.102;2024-03-08T06:48:56;1.10;99.90
27890;DHT22;15238;49.082;9.102;2024-03-08T06:50:57;1.20;99.90
27890;DHT22;15238;49.082;9.102;2024-03-08T06:52:57;1.20;99.90
27890;DHT22;15238;49.082;9.102;2024-03-08T06:54:59;1.30;99.90
27890;DHT22;15238;49.082;9.102;2024-03-08T06:57:04;1.30;99.90
27890;DHT22;15238;49.082;9.102;2024-03-08T06:59:05;1.40;99.90
27890;DHT22;15238;49.082;9.102;2024-03-08T07:01:06;1.40;99.90
27890;DHT22;15238;49.082;9.102;2024-03-08T07:03:08;1.50;99.90
27890;DHT22;15238;49.082;9.102;2024-03-08T07:05:12;1.60;99.90
27890;DHT22;15238;49.082;9.102;2024-03-08T07:07:12;1.60;99.90
27890;DHT22;15238;49.082;9.102;2024-03-08T07:09:13;1.70;99.90
27890;DHT22;15238;49.082;9.102;2024-03-08T07:11:16;1.70;99.90
27890;DHT22;15238;49.082;9.102;2024-03-08T07:13:18;1.80;99.90
27890;DHT22;15238;49.082;9.102;2024-03-08T07:15:19;1.90;99.90
27890;DHT22;15238;49.082;9.102;2024-03-08T07:17:20;2.00;99.90
27890;DHT22;15238;49.082;9.102;2024-03-08T07:19:20;2.10;99.90
27890;DHT22;15238;49.082;9.102;2024-03-08T07:21:21;2.20;99.90
27890;DHT22;15238;49.082;9.102;2024-03-08T07:23:22;2.30;99.90
27890;DHT22;15238;49.082;9.102;2024-03-08T07:25:41;2.40;99.90
27890;DHT22;15238;49.082;9.102;2024-03-08T07:27:43;2.50;99.90
27890;DHT22;15238;49.082;9.102;2024-03-08T07:29:43;2.60;99.90
27890;DHT22;15238;49.082;9.102;2024-03-08T07:31:44;2.70;99.90
27890;DHT22;15238;49.082;9.102;2024-03-08T07:34:12;2.80;99.90
27890;DHT22;15238;49.082;9.102;2024-03-08T07:36:12;2.90;99.90
27890;DHT22;15238;49.082;9.102;2024-03-08T07:38:15;2.90;99.90
27890;DHT22;15238;49.082;9.102;2024-03-08T07:40:16;3.00;99.90
27890;DHT22;15238;49.082;9.102;2024-03-08T07:42:18;3.10;99.90
27890;DHT22;15238;49.082;9.102;2024-03-08T07:44:19;3.20;99.90
27890;DHT22;15238;49.082;9.102;2024-03-08T07:46:19;3.20;99.90
27890;DHT22;15238;49.082;9.102;2024-03-08T07:48:20;3.30;99.90
27890;DHT22;15238;49.082;9.102;2024-03-08T07:50:21;3.40;99.90
27890;DHT22;15238;49.082;9.102;2024-03-08T07:52:23;3.50;99.90
27890;DHT22;15238;49.082;9.102;2024-03-08T07:54:23;3.60;99.90
27890;DHT22;15238;49.082;9.102;2024-03-08T07:56:26;3.70;99.90
27890;DHT22;15238;49.082;9.102;2024-03-08T07:58:26;3.80;99.90
27890;DHT22;15238;49.082;9.102;2024-03-08T08:00:27;3.90;99.90
27890;DHT22;15238;49.082;9.102;2024-03-08T08:02:27;4.00;99.90
27890;DHT22;15238;49.082;9.102;2024-03-08T08:04:28;4.10;99.90
27890;DHT22;15238;49.082;9.102;2024-03-08T08:06:28;4.10;99.90
27890;DHT22;15238;49.082;9.102;2024-03-08T08:08:32;4.20;99.90
27890;DHT22;15238;49.082;9.102;2024-03-08T08:10:32;4.30;99.90
27890;DHT22;15238;49.082;9.102;2024-03-08T08:12:33;4.30;99.90
27890;DHT22;15238;49.082;9.102;2024-03-08T08:14:34;4.30;99.90
27890;DHT22;15238;49.082;9.102;2024-03-08T08:16:35;4.30;99.90
27890;DHT22;15238;49.082;9.102;2024-03-08T08:18:37;4.30;99.90
27890;DHT22;15238;49.082;9.102;2024-03-08T08:20:37;4.20;99.90
27890;DHT22;15238;49.082;9.102;2024-03-08T08:22:41;4.20;99.90
27890;DHT22;15238;49.082;9.102;2024-03-08T08:24:43;4.20;99.90
27890;DHT22;15238;49.082;9.102;2024-03-08T08:26:43;4.30;99.90
27890;DHT22;15238;49.082;9.102;2024-03-08T08:28:44;4.30;99.90
27890;DHT22;15238;49.082;9.102;2024-03-08T08:30:46;4.30;99.90
27890;DHT22;15238;49.082;9.102;2024-03-08T08:32:47;4.30;99.90
27890;DHT22;15238;49.082;9.102;2024-03-08T08:34:48;4.30;99.90
27890;DHT22;15238;49.082;9.102;2024-03-08T08:36:49;4.30;99.90
27890;DHT22;15238;49.082;9.102;2024-03-08T08:38:49;4.30;99.90
27890;DHT22;15238;49.082;9.102;2024-03-08T08:40:51;4.40;99.90
27890;DHT22;15238;49.082;9.102;2024-03-08T08:42:52;4.40;99.90
27890;DHT22;15238;49.082;9.102;2024-03-08T08:44:53;4.50;99.90
27890;DHT22;15238;49.082;9.102;2024-03-08T08:46:53;4.50;99.90
27890;DHT22;15238;49.082;9.102;2024-03-08T08:48:54;4.60;99.90
27890;DHT22;15238;49.082;9.102;2024-03-08T08:50:54;4.60;99.90
27890;DHT22;15238;49.082;9.102;2024-03-08T08:52:55;4.70;99.90
27890;DHT22;15238;49.082;9.102;2024-03-08T08:54:56;4.70;99.90
27890;DHT22;15238;49.082;9.102;2024-03-08T08:56:57;4.80;99.90
27890;DHT22;15238;49.082;9.102;2024-03-08T08:58:57;4.80;99.90
27890;DHT22;15238;49.082;9.102;2024-03-08T09:00:58;4.90;99.90
27890;DHT22;15238;49.082;9.102;2024-03-08T09:03:00;4.90;99.90
27890;DHT22;15238;49.082;9.102;2024-03-08T09:05:00;4.90;99.90
27890;DHT22;15238;49.082;9.102;2024-03-08T09:07:04;4.90;99.90
27890;DHT22;15238;49.082;9.102;2024-03-08T09:09:07;5.00;99.90
27890;DHT22;15238;49.082;9.102;2024-03-08T09:11:10;5.10;99.90
27890;DHT22;15238;49.082;9.102;2024-03-08T09:13:10;5.10;99.90
27890;DHT22;15238;49.082;9.102;2024-03-08T09:15:12;5.10;99.90
27890;DHT22;15238;49.082;9.102;2024-03-08T09:17:12;5.20;99.90
27890;DHT22;15238;49.082;9.102;2024-03-08T09:19:17;5.10;99.90
27890;DHT22;15238;49.082;9.102;2024-03-08T09:21:19;5.10;99.90
27890;DHT22;15238;49.082;9.102;2024-03-08T09:23:20;5.20;99.90
27890;DHT22;15238;49.082;9.102;2024-03-08T09:25:21;5.20;99.90
27890;DHT22;15238;49.082;9.102;2024-03-08T09:27:22;5.20;99.90
27890;DHT22;15238;49.082;9.102;2024-03-08T09:29:23;5.20;99.90
27890;DHT22;15238;49.082;9.102;2024-03-08T09:31:23;5.30;99.90
27890;DHT22;15238;49.082;9.102;2024-03-08T09:33:24;5.30;99.90
27890;DHT22;15238;49.082;9.102;2024-03-08T09:35:25;5.30;99.90
27890;DHT22;15238;49.082;9.102;2024-03-08T09:37:25;5.40;99.90
27890;DHT22;15238;49.082;9.102;2024-03-08T09:39:26;5.50;99.90
27890;DHT22;15238;49.082;9.102;2024-03-08T09:41:26;5.50;99.90
27890;DHT22;15238;49.082;9.102;2024-03-08T09:43:28;5.60;99.90
27890;DHT22;15238;49.082;9.102;2024-03-08T09:45:32;5.50;99.90
27890;DHT22;15238;49.082;9.102;2024-03-08T09:47:36;5.50;99.90
27890;DHT22;15238;49.082;9.102;2024-03-08T09:49:39;5.60;99.90
27890;DHT22;15238;49.082;9.102;2024-03-08T09:51:40;5.70;99.90
27890;DHT22;15238;49.082;9.102;2024-03-08T09:53:41;5.80;99.90
27890;DHT22;15238;49.082;9.102;2024-03-08T09:55:46;5.80;99.90
27890;DHT22;15238;49.082;9.102;2024-03-08T09:57:51;5.90;99.90
27890;DHT22;15238;49.082;9.102;2024-03-08T10:00:12;5.90;99.90
27890;DHT22;15238;49.082;9.102;2024-03-08T10:02:24;5.90;99.90
27890;DHT22;15238;49.082;9.102;2024-03-08T10:04:25;6.00;99.90
27890;DHT22;15238;49.082;9.102;2024-03-08T10:06:28;6.00;99.90
27890;DHT22;15238;49.082;9.102;2024-03-08T10:08:29;6.00;99.90
27890;DHT22;15238;49.082;9.102;2024-03-08T10:10:30;6.00;99.90
27890;DHT22;15238;49.082;9.102;2024-03-08T10:12:30;6.00;99.90
27890;DHT22;15238;49.082;9.102;2024-03-08T10:14:31;6.10;99.90
27890;DHT22;15238;49.082;9.102;2024-03-08T10:16:32;6.10;99.90
27890;DHT22;15238;49.082;9.102;2024-03-08T10:18:32;6.10;99.90
27890;DHT22;15238;49.082;9.102;2024-03-08T10:20:33;6.10;99.90
27890;DHT22;15238;49.082;9.102;2024-03-08T10:22:34;6.20;99.90
27890;DHT22;15238;49.082;9.102;2024-03-08T10:24:35;6.20;99.90
27890;DHT22;15238;49.082;9.102;2024-03-08T10:26:37;6.20;99.90
27890;DHT22;15238;49.082;9.102;2024-03-08T10:28:37;6.20;99.90
27890;DHT22;15238;49.082;9.102;2024-03-08T10:30:38;6.30;99.90
27890;DHT22;15238;49.082;9.102;2024-03-08T10:32:39;6.50;99.90
27890;DHT22;15238;49.082;9.102;2024-03-08T10:34:41;6.40;99.90
27890;DHT22;15238;49.082;9.102;2024-03-08T10:36:42;6.50;99.90
27890;DHT22;15238;49.082;9.102;2024-03-08T10:38:43;6.60;99.90
27890;DHT22;15238;49.082;9.102;2024-03-08T10:40:47;6.60;99.90
27890;DHT22;15238;49.082;9.102;2024-03-08T10:42:59;6.60;99.90
27890;DHT22;15238;49.082;9.102;2024-03-08T10:45:11;6.70;99.90
27890;DHT22;15238;49.082;9.102;2024-03-08T10:47:25;6.70;99.90
27890;DHT22;15238;49.082;9.102;2024-03-08T10:49:37;6.70;99.90
27890;DHT22;15238;49.082;9.102;2024-03-08T10:51:40;6.70;99.90
27890;DHT22;15238;49.082;9.102;2024-03-08T10:53:42;6.80;99.90
27890;DHT22;15238;49.082;9.102;2024-03-08T10:55:45;6.70;99.90
27890;DHT22;15238;49.082;9.102;2024-03-08T10:57:47;6.80;99.90
27890;DHT22;15238;49.082;9.102;2024-03-08T10:59:48;6.90;99.90
27890;DHT22;15238;49.082;9.102;2024-03-08T11:01:50;6.90;99.90
27890;DHT22;15238;49.082;9.102;2024-03-08T11:03:51;7.00;99.90
27890;DHT22;15238;49.082;9.102;2024-03-08T11:05:53;7.20;99.90
27890;DHT22;15238;49.082;9.102;2024-03-08T11:07:54;7.20;99.90
27890;DHT22;15238;49.082;9.102;2024-03-08T11:09:56;7.30;99.90
27890;DHT22;15238;49.082;9.102;2024-03-08T11:15:11;7.30;99.90
27890;DHT22;15238;49.082;9.102;2024-03-08T11:17:06;7.20;99.90
27890;DHT22;15238;49.082;9.102;2024-03-08T11:21:11;7.20;99.90
27890;DHT22;15238;49.082;9.102;2024-03-08T11:23:22;7.20;99.90
27890;DHT22;15238;49.082;9.102;2024-03-08T11:25:40;7.20;99.90
27890;DHT22;15238;49.082;9.102;2024-03-08T11:27:53;7.10;99.90
27890;DHT22;15238;49.082;9.102;2024-03-08T11:30:07;7.10;99.90
27890;DHT22;15238;49.082;9.102;2024-03-08T11:32:27;6.90;99.90
27890;DHT22;15238;49.082;9.102;2024-03-08T11:34:29;6.90;99.90
27890;DHT22;15238;49.082;9.102;2024-03-08T11:36:34;7.20;99.90
27890;DHT22;15238;49.082;9.102;2024-03-08T11:38:46;7.20;99.90
27890;DHT22;15238;49.082;9.102;2024-03-08T11:40:50;7.30;99.90
27890;DHT22;15238;49.082;9.102;2024-03-08T11:42:51;7.50;99.90
27890;DHT22;15238;49.082;9.102;2024-03-08T11:44:52;7.70;99.90
27890;DHT22;15238;49.082;9.102;2024-03-08T11:46:53;7.80;99.90
27890;DHT22;15238;49.082;9.102;2024-03-08T11:48:54;8.00;99.90
27890;DHT22;15238;49.082;9.102;2024-03-08T11:51:00;8.20;99.90
27890;DHT22;15238;49.082;9.102;2024-03-08T11:53:03;8.20;99.90
27890;DHT22;15238;49.082;9.102;2024-03-08T11:55:05;8.30;99.90
27890;DHT22;15238;49.082;9.102;2024-03-08T11:57:06;8.30;99.90
27890;DHT22;15238;49.082;9.102;2024-03-08T11:59:11;8.40;99.90
27890;DHT22;15238;49.082;9.102;2024-03-08T12:01:12;8.50;99.90
27890;DHT22;15238;49.082;9.102;2024-03-08T12:03:13;8.50;99.90
27890;DHT22;15238;49.082;9.102;2024-03-08T12:05:14;8.50;99.90
27890;DHT22;15238;49.082;9.102;2024-03-08T12:07:16;8.40;99.90
27890;DHT22;15238;49.082;9.102;2024-03-08T12:09:19;8.50;99.90
27890;DHT22;15238;49.082;9.102;2024-03-08T12:11:22;8.70;99.90
27890;DHT22;15238;49.082;9.102;2024-03-08T12:13:23;8.70;99.90
27890;DHT22;15238;49.082;9.102;2024-03-08T12:15:24;8.80;99.90
27890;DHT22;15238;49.082;9.102;2024-03-08T12:17:25;8.90;99.90
27890;DHT22;15238;49.082;9.102;2024-03-08T12:19:26;9.00;99.90
27890;DHT22;15238;49.082;9.102;2024-03-08T12:21:26;9.00;99.90
27890;DHT22;15238;49.082;9.102;2024-03-08T12:23:29;9.10;99.90
27890;DHT22;15238;49.082;9.102;2024-03-08T12:25:36;9.20;99.90
27890;DHT22;15238;49.082;9.102;2024-03-08T12:27:40;9.30;99.90
27890;DHT22;15238;49.082;9.102;2024-03-08T12:29:41;9.40;99.90
27890;DHT22;15238;49.082;9.102;2024-03-08T12:31:42;9.40;99.90
27890;DHT22;15238;49.082;9.102;2024-03-08T12:33:53;9.50;99.90
27890;DHT22;15238;49.082;9.102;2024-03-08T12:35:54;9.50;99.90
27890;DHT22;15238;49.082;9.102;2024-03-08T12:37:56;9.40;99.90
27890;DHT22;15238;49.082;9.102;2024-03-08T12:39:57;9.40;99.90
27890;DHT22;15238;49.082;9.102;2024-03-08T12:41:58;9.50;99.90
27890;DHT22;15238;49.082;9.102;2024-03-08T12:44:00;9.60;99.90
27890;DHT22;15238;49.082;9.102;2024-03-08T12:46:00;9.50;99.90
27890;DHT22;15238;49.082;9.102;2024-03-08T12:48:01;9.50;99.90
27890;DHT22;15238;49.082;9.102;2024-03-08T12:50:04;9.50;99.90
27890;DHT22;15238;49.082;9.102;2024-03-08T12:52:09;9.50;99.90
27890;DHT22;15238;49.082;9.102;2024-03-08T12:54:10;9.50;99.90
27890;DHT22;15238;49.082;9.102;2024-03-08T12:56:12;9.60;99.90
27890;DHT22;15238;49.082;9.102;2024-03-08T12:58:12;9.60;99.90
27890;DHT22;15238;49.082;9.102;2024-03-08T13:00:13;9.70;99.90
27890;DHT22;15238;49.082;9.102;2024-03-08T13:02:19;9.70;99.90
27890;DHT22;15238;49.082;9.102;2024-03-08T13:04:20;9.70;99.90
27890;DHT22;15238;49.082;9.102;2024-03-08T13:06:22;9.80;99.90